Terminal Aerodrome Forecast
Issued by NWS Jackson, MS

Current Version | Previous Version | Text Only | Print | Product List | Glossary On
Versions: 1 2 3 4 5 6 7 8 9 10 11 12 13 14
000
FTUS44 KJAN 231100 RRA
TAFGLH
TAF
KGLH 231140Z 2312/2412 13013KT P6SM -SHRA OVC014
     FM231700 19014G24KT P6SM VCSH BKN015
     FM232200 20013KT P6SM OVC025
     FM240000 21017G27KT P6SM FEW040=

USA.gov is the U.S. government's official web portal to all federal, state and local government web resources and services.